Time;durP1;ratioP1;P1;durP2;ratioP2;P2;SDS_P1;SDS_P2;PMS_P1;PMS_P2;Temp;Humidity;BMP_temperature;BMP_pressure;BME280_temperature;BME280_humidity;BME280_pressure;Samples;Min_cycle;Max_cycle;Signal;HPM_P1;HPM_P2
2022/03/23 00:01:57;;;;;;;12.4;6.6;;;;;;;4.39;61.37598;949.3434;;;;
2022/03/23 00:04:24;;;;;;;8.5;5.9;;;;;;;4.44;60.77441;949.2804;;;;
2022/03/23 00:06:51;;;;;;;8.3;6;;;;;;;4.46;60.16992;949.3391;;;;
2022/03/23 00:09:30;;;;;;;9.5;6.2;;;;;;;4.57;60.0166;949.2469;;;;
2022/03/23 00:11:55;;;;;;;9.1;6.2;;;;;;;4.5;60.46777;949.2796;;;;
2022/03/23 00:14:26;;;;;;;10.6;7.4;;;;;;;4.34;61.19922;949.2026;;;;
2022/03/23 00:16:54;;;;;;;12.9;8.2;;;;;;;4.33;61.32129;949.2747;;;;
2022/03/23 00:19:22;;;;;;;9.1;6.8;;;;;;;4.31;61.10547;949.2286;;;;
2022/03/23 00:21:47;;;;;;;8.5;6.5;;;;;;;4.18;61.65918;949.2841;;;;
2022/03/23 00:24:12;;;;;;;10.3;6.7;;;;;;;4.04;62.4043;949.2562;;;;
2022/03/23 00:26:37;;;;;;;9.4;6.8;;;;;;;4.07;62.36328;949.2203;;;;
2022/03/23 00:29:03;;;;;;;10.2;6.9;;;;;;;3.94;62.88477;949.2277;;;;
2022/03/23 00:31:29;;;;;;;8.8;7;;;;;;;3.92;63.08301;949.1119;;;;
2022/03/23 00:33:55;;;;;;;10.3;7.5;;;;;;;3.87;63.15527;949.1222;;;;
2022/03/23 00:36:25;;;;;;;9.6;7;;;;;;;3.92;62.93848;949.1783;;;;
2022/03/23 00:38:53;;;;;;;9.8;7;;;;;;;3.85;62.75879;949.1974;;;;
2022/03/23 00:41:18;;;;;;;11.9;7.5;;;;;;;3.68;63.57617;949.1495;;;;
2022/03/23 00:43:43;;;;;;;8.1;6.4;;;;;;;3.57;63.89648;949.1953;;;;
2022/03/23 00:46:08;;;;;;;9.9;5.8;;;;;;;3.44;63.47461;949.1234;;;;
2022/03/23 00:48:35;;;;;;;10.7;6.6;;;;;;;3.4;64.07422;949.209;;;;
2022/03/23 00:51:02;;;;;;;10.7;6.7;;;;;;;3.41;63.92871;949.1822;;;;
2022/03/23 00:53:26;;;;;;;11.7;6.5;;;;;;;3.55;63.08594;949.1829;;;;
2022/03/23 00:55:51;;;;;;;10.5;6.5;;;;;;;3.66;62.6416;949.207;;;;
2022/03/23 00:58:19;;;;;;;9.8;6.2;;;;;;;3.75;62.05859;949.1605;;;;
2022/03/23 01:00:45;;;;;;;10.5;7.2;;;;;;;3.7;62.43457;949.1573;;;;
2022/03/23 01:03:10;;;;;;;11.8;7.7;;;;;;;3.49;63.48047;949.1875;;;;
2022/03/23 01:05:35;;;;;;;11.7;7.1;;;;;;;3.4;63.43359;949.1312;;;;
2022/03/23 01:08:00;;;;;;;10.8;7.9;;;;;;;3.39;63.80273;949.1055;;;;
2022/03/23 01:10:27;;;;;;;11.6;8.1;;;;;;;3.46;63.33105;949.145;;;;
2022/03/23 01:12:54;;;;;;;9.4;7;;;;;;;3.47;63.36719;949.1606;;;;
2022/03/23 01:15:18;;;;;;;15.6;8.5;;;;;;;3.5;62.4375;949.1997;;;;
2022/03/23 01:17:43;;;;;;;13.9;7.5;;;;;;;3.49;61.94238;949.1976;;;;
2022/03/23 01:20:11;;;;;;;9.2;6.4;;;;;;;3.53;61.72266;949.1531;;;;
2022/03/23 01:22:36;;;;;;;9.5;5.6;;;;;;;3.61;61.52148;949.1656;;;;
2022/03/23 01:25:01;;;;;;;8.1;6;;;;;;;3.5;61.96582;949.1216;;;;
2022/03/23 01:27:26;;;;;;;6.9;5.2;;;;;;;3.3;61.80176;949.1746;;;;
2022/03/23 01:29:52;;;;;;;8.3;4.9;;;;;;;3.08;62.4668;949.1725;;;;
2022/03/23 01:32:16;;;;;;;6.2;5.2;;;;;;;3.04;62.84082;949.152;;;;
2022/03/23 01:34:44;;;;;;;11.7;5.9;;;;;;;3;63.09277;949.108;;;;
2022/03/23 01:37:09;;;;;;;7.6;5;;;;;;;2.99;62.79004;949.1014;;;;
2022/03/23 01:39:34;;;;;;;8.6;4.7;;;;;;;3.04;62.56055;949.1033;;;;
2022/03/23 01:41:59;;;;;;;11.8;6.1;;;;;;;3.05;62.73145;949.1255;;;;
2022/03/23 01:44:24;;;;;;;7.1;5.1;;;;;;;2.98;63.02441;949.0653;;;;
2022/03/23 01:46:49;;;;;;;8.7;5.8;;;;;;;2.94;63.75781;949.0637;;;;
2022/03/23 01:49:14;;;;;;;10;6.4;;;;;;;2.88;63.99609;949.0842;;;;
2022/03/23 01:51:39;;;;;;;9.2;6.5;;;;;;;2.77;64.03418;949.1217;;;;
2022/03/23 01:54:05;;;;;;;8.5;5.8;;;;;;;2.78;63.78906;949.0994;;;;
2022/03/23 01:56:31;;;;;;;10.4;5.9;;;;;;;2.8;63.68164;949.1172;;;;
2022/03/23 01:58:56;;;;;;;10;6.3;;;;;;;2.71;63.95801;949.152;;;;
2022/03/23 02:01:23;;;;;;;8.2;6;;;;;;;2.64;64.1709;949.1379;;;;
2022/03/23 02:03:49;;;;;;;7.7;5.8;;;;;;;2.48;64.51758;949.1152;;;;
2022/03/23 02:06:15;;;;;;;7.8;5.5;;;;;;;2.46;64.87305;949.108;;;;
2022/03/23 02:08:40;;;;;;;7.7;5.5;;;;;;;2.52;64.81445;949.1113;;;;
2022/03/23 02:11:05;;;;;;;7.1;5.3;;;;;;;2.49;64.81055;949.1443;;;;
2022/03/23 02:13:31;;;;;;;7.9;5.4;;;;;;;2.44;64.61328;949.092;;;;
2022/03/23 02:15:56;;;;;;;6.4;4.8;;;;;;;2.5;63.9375;949.0801;;;;
2022/03/23 02:18:21;;;;;;;6.3;4.5;;;;;;;2.52;63.91797;949.0358;;;;
2022/03/23 02:20:46;;;;;;;11.3;6.3;;;;;;;2.65;63.35547;949.0419;;;;
2022/03/23 02:23:13;;;;;;;8.3;5.4;;;;;;;2.67;63.29102;949.01;;;;
2022/03/23 02:25:39;;;;;;;5.6;5;;;;;;;2.51;64.05078;948.9619;;;;
2022/03/23 02:28:04;;;;;;;7;5.4;;;;;;;2.4;64.39453;948.9219;;;;
2022/03/23 02:30:29;;;;;;;6.5;5;;;;;;;2.3;64.59277;948.8918;;;;
2022/03/23 02:32:55;;;;;;;6.7;5.3;;;;;;;2.26;64.41602;948.9144;;;;
2022/03/23 02:35:21;;;;;;;6.7;5.3;;;;;;;2.31;63.96484;948.9224;;;;
2022/03/23 02:37:50;;;;;;;7.2;5;;;;;;;2.38;63.39355;948.9562;;;;
2022/03/23 02:40:15;;;;;;;8.9;5.2;;;;;;;2.41;63.20801;948.9033;;;;
2022/03/23 02:42:41;;;;;;;6.3;4.7;;;;;;;2.5;62.68359;948.9113;;;;
2022/03/23 02:45:06;;;;;;;7.3;5.3;;;;;;;2.56;62.625;948.9169;;;;
2022/03/23 02:47:32;;;;;;;8.3;5.2;;;;;;;2.6;62.59668;948.8649;;;;
2022/03/23 02:49:57;;;;;;;6.9;4.9;;;;;;;2.48;63.1748;948.8498;;;;
2022/03/23 02:52:22;;;;;;;9.4;5.4;;;;;;;2.29;63.73828;948.8636;;;;
2022/03/23 03:02:03;;;;;;;7.2;4.9;;;;;;;2.04;64.58496;948.8575;;;;
2022/03/23 03:04:29;;;;;;;6.6;5;;;;;;;2.04;64.32715;948.8653;;;;
2022/03/23 03:06:53;;;;;;;6.1;4.4;;;;;;;2.09;63.99805;948.7919;;;;
2022/03/23 03:09:20;;;;;;;5.5;4.6;;;;;;;2.09;63.87695;948.7734;;;;
2022/03/23 03:11:47;;;;;;;5.2;4.5;;;;;;;2.09;64.11133;948.7567;;;;
2022/03/23 03:14:11;;;;;;;5.6;4.5;;;;;;;2.02;64.19141;948.8472;;;;
2022/03/23 03:16:36;;;;;;;7.9;4.9;;;;;;;2.03;64.28125;948.788;;;;
2022/03/23 03:19:01;;;;;;;6.4;4.8;;;;;;;2.01;64.06543;948.8236;;;;
2022/03/23 03:21:26;;;;;;;6;4.5;;;;;;;2.01;63.70801;948.7994;;;;
2022/03/23 03:23:51;;;;;;;6.6;4.2;;;;;;;2.04;63.28809;948.8286;;;;
2022/03/23 03:26:19;;;;;;;4.8;4;;;;;;;2.14;62.52832;948.798;;;;
2022/03/23 03:28:43;;;;;;;8.1;4.7;;;;;;;2.14;62.73145;948.8039;;;;
2022/03/23 03:31:09;;;;;;;6.2;4.3;;;;;;;2.16;62.36328;948.8334;;;;
2022/03/23 03:33:34;;;;;;;6.4;4.5;;;;;;;2.2;62.34863;948.81;;;;
2022/03/23 03:36:02;;;;;;;6.9;4.6;;;;;;;2.11;62.99512;948.8358;;;;
2022/03/23 03:38:27;;;;;;;10;4.9;;;;;;;2.16;62.91211;948.8447;;;;
2022/03/23 03:40:52;;;;;;;6.5;4.5;;;;;;;2.16;63.1709;948.8561;;;;
2022/03/23 03:43:18;;;;;;;9;5.1;;;;;;;2.07;63.49316;948.8177;;;;
2022/03/23 03:45:42;;;;;;;6.9;4.3;;;;;;;2.13;62.66113;948.7062;;;;
2022/03/23 03:48:07;;;;;;;7.5;4.4;;;;;;;2.23;62.04883;948.8372;;;;
2022/03/23 03:50:35;;;;;;;5.7;3.9;;;;;;;2.28;61.90039;948.8338;;;;
2022/03/23 03:53:00;;;;;;;7.1;4.5;;;;;;;2.18;62.33398;948.8367;;;;
2022/03/23 03:55:25;;;;;;;5.1;4;;;;;;;2.1;62.44531;948.7866;;;;
2022/03/23 03:57:50;;;;;;;8;4.6;;;;;;;2.01;62.34082;948.8453;;;;
2022/03/23 04:02:31;;;;;;;6.9;4.4;;;;;;;1.86;63.61719;948.8779;;;;
2022/03/23 04:04:56;;;;;;;5.9;4.2;;;;;;;1.83;63.81445;948.8912;;;;
2022/03/23 04:07:21;;;;;;;7.2;4.4;;;;;;;1.74;64.10449;948.9182;;;;
2022/03/23 04:09:46;;;;;;;10.5;5.6;;;;;;;1.76;63.84961;948.9215;;;;
2022/03/23 04:12:11;;;;;;;13.3;6.7;;;;;;;1.72;63.80957;948.9455;;;;
2022/03/23 04:14:37;;;;;;;12.1;6.3;;;;;;;1.76;63.89355;948.8929;;;;
2022/03/23 04:17:03;;;;;;;12;6.3;;;;;;;1.92;62.46289;948.9066;;;;
2022/03/23 04:19:28;;;;;;;11;6.3;;;;;;;1.99;62.70898;948.9658;;;;
2022/03/23 04:21:53;;;;;;;12.9;6.9;;;;;;;2.05;62.78418;948.8948;;;;
2022/03/23 04:24:18;;;;;;;16.6;7;;;;;;;2.08;62.66504;948.9714;;;;
2022/03/23 04:26:44;;;;;;;10.8;5.9;;;;;;;2.16;62.15039;948.9893;;;;
2022/03/23 04:29:09;;;;;;;9.4;5.6;;;;;;;2.04;62.45801;949.0381;;;;
2022/03/23 04:31:35;;;;;;;11;5.7;;;;;;;2;62.2627;948.9971;;;;
2022/03/23 04:34:00;;;;;;;11.4;5.5;;;;;;;1.99;62.35059;949.1105;;;;
2022/03/23 04:36:25;;;;;;;9.4;5.3;;;;;;;2.11;61.71875;949.1356;;;;
2022/03/23 04:38:51;;;;;;;12.6;6.1;;;;;;;2.2;61.95605;949.1353;;;;
2022/03/23 04:41:16;;;;;;;9.5;5.1;;;;;;;2.23;61.39941;949.2131;;;;
2022/03/23 04:43:41;;;;;;;11;5.7;;;;;;;2.18;61.63965;949.1813;;;;
2022/03/23 04:46:06;;;;;;;11.6;5.8;;;;;;;2.11;61.74121;949.1838;;;;
2022/03/23 04:48:32;;;;;;;20.4;8.6;;;;;;;2.21;61.59863;949.2738;;;;
2022/03/23 04:50:57;;;;;;;19.5;9.1;;;;;;;2.22;61.55469;949.2782;;;;
2022/03/23 04:53:23;;;;;;;22.4;12.4;;;;;;;2.19;61.84082;949.3091;;;;
2022/03/23 04:55:48;;;;;;;14.1;10;;;;;;;2.06;62.03516;949.3189;;;;
2022/03/23 04:58:13;;;;;;;12.2;7.6;;;;;;;2.06;61.92383;949.2608;;;;
2022/03/23 05:00:40;;;;;;;15.7;8.4;;;;;;;2.05;62.1582;949.3052;;;;
2022/03/23 05:03:04;;;;;;;14.5;7.4;;;;;;;2.08;61.76953;949.3248;;;;
2022/03/23 05:05:30;;;;;;;18.2;8.1;;;;;;;2.09;61.82813;949.3295;;;;
2022/03/23 05:07:54;;;;;;;14.7;8;;;;;;;2.19;61.82031;949.3329;;;;
2022/03/23 05:10:19;;;;;;;12.4;7.4;;;;;;;2.08;62.05078;949.4194;;;;
2022/03/23 05:12:45;;;;;;;12.6;8.3;;;;;;;1.99;62.12695;949.4578;;;;
2022/03/23 05:15:11;;;;;;;12.3;8.2;;;;;;;1.76;63.00977;949.5109;;;;
2022/03/23 05:17:36;;;;;;;18;9.4;;;;;;;1.67;62.59473;949.4926;;;;
2022/03/23 05:20:02;;;;;;;12.4;7.7;;;;;;;1.6;63.06543;949.4631;;;;
2022/03/23 05:22:27;;;;;;;13;8.3;;;;;;;1.58;63.11719;949.4965;;;;
2022/03/23 05:24:52;;;;;;;19.7;8.9;;;;;;;1.58;63.28613;949.5297;;;;
2022/03/23 05:27:17;;;;;;;15;7.7;;;;;;;1.57;63.01465;949.5486;;;;
2022/03/23 05:29:43;;;;;;;13.7;8.1;;;;;;;1.62;62.75488;949.563;;;;
2022/03/23 05:32:37;;;;;;;13.4;7.9;;;;;;;1.7;62.36426;949.5663;;;;
2022/03/23 05:35:02;;;;;;;26.8;10.7;;;;;;;1.73;61.88672;949.5352;;;;
2022/03/23 05:37:27;;;;;;;29.2;10.8;;;;;;;1.67;61.94629;949.5303;;;;
2022/03/23 05:39:53;;;;;;;18.6;7.6;;;;;;;1.81;61.84277;949.5291;;;;
2022/03/23 05:42:41;;;;;;;11.7;4.9;;;;;;;1.78;61.3916;949.5352;;;;
2022/03/23 05:45:08;;;;;;;12.6;5.8;;;;;;;1.93;60.31738;949.5352;;;;
2022/03/23 05:47:34;;;;;;;18.4;10;;;;;;;2.05;60.44531;949.5471;;;;
2022/03/23 05:49:58;;;;;;;26.7;14.2;;;;;;;2.1;60.86621;949.5586;;;;
2022/03/23 05:52:23;;;;;;;26.5;10.6;;;;;;;2.28;60.30957;949.6024;;;;
2022/03/23 05:54:48;;;;;;;30.1;11.1;;;;;;;2.28;60.58984;949.5895;;;;
2022/03/23 05:57:14;;;;;;;27.7;12.5;;;;;;;3.1;58.54199;949.5623;;;;
2022/03/23 05:59:39;;;;;;;18.2;8.2;;;;;;;4.83;53.05566;949.5219;;;;
2022/03/23 06:02:04;;;;;;;18.2;7.6;;;;;;;6.67;47.75;949.4662;;;;
2022/03/23 06:04:29;;;;;;;15.1;7.1;;;;;;;7.71;45.37109;949.3469;;;;
2022/03/23 06:06:54;;;;;;;22.3;8.9;;;;;;;8.64;42.95801;949.4612;;;;
2022/03/23 06:09:19;;;;;;;20.7;9.7;;;;;;;8.54;41.58398;949.5095;;;;
2022/03/23 06:11:44;;;;;;;20.8;9.5;;;;;;;7.82;43.5;949.4785;;;;
2022/03/23 06:14:09;;;;;;;19.5;8.4;;;;;;;8.66;41.61816;949.4592;;;;
2022/03/23 06:16:34;;;;;;;22.5;8.3;;;;;;;9.36;40.54688;949.4906;;;;
2022/03/23 06:19:00;;;;;;;14.8;8.5;;;;;;;10.76;38.42871;949.4501;;;;
2022/03/23 06:21:26;;;;;;;16.9;8.5;;;;;;;12.4;36.23535;949.5011;;;;
2022/03/23 06:23:51;;;;;;;18.1;7.8;;;;;;;12.42;36.17969;949.4529;;;;
2022/03/23 06:26:18;;;;;;;21.1;9.7;;;;;;;11.56;36.41602;949.4698;;;;
2022/03/23 06:28:43;;;;;;;14.4;9.5;;;;;;;10.94;37.48438;949.5047;;;;
2022/03/23 06:31:09;;;;;;;19.9;10.6;;;;;;;10.28;38.21484;949.5209;;;;
2022/03/23 06:35:59;;;;;;;15.7;9.1;;;;;;;13.33;33.94434;949.3881;;;;
2022/03/23 06:41:13;;;;;;;10.9;5.2;;;;;;;12.25;33.43652;949.45;;;;
2022/03/23 06:43:38;;;;;;;8.6;5.2;;;;;;;13.74;31.96387;949.4256;;;;
2022/03/23 06:46:04;;;;;;;16.5;6.1;;;;;;;14.46;29.04395;949.4442;;;;
2022/03/23 06:48:29;;;;;;;16.9;6.1;;;;;;;15.24;28.21973;949.4106;;;;
2022/03/23 06:50:54;;;;;;;15.2;5.4;;;;;;;15.53;27.39453;949.3605;;;;
2022/03/23 06:53:20;;;;;;;15;5.7;;;;;;;16.99;27.37012;949.4048;;;;
2022/03/23 06:55:45;;;;;;;10.9;4.8;;;;;;;17.62;26.35352;949.3675;;;;
2022/03/23 06:58:11;;;;;;;8.3;3;;;;;;;18.34;24.22266;949.287;;;;
2022/03/23 07:00:36;;;;;;;17.7;5.2;;;;;;;17.73;24.27148;949.3395;;;;
2022/03/23 07:03:02;;;;;;;10.4;3.8;;;;;;;17.16;24.16992;949.3951;;;;
2022/03/23 07:05:27;;;;;;;8.5;3.2;;;;;;;17.5;24.21191;949.3977;;;;
2022/03/23 07:10:19;;;;;;;10.7;3.2;;;;;;;19.03;23.17871;949.2898;;;;
2022/03/23 07:12:45;;;;;;;4.5;2.4;;;;;;;16.47;23.53027;949.3844;;;;
2022/03/23 07:15:10;;;;;;;6;2.8;;;;;;;16.61;23.57227;949.3166;;;;
2022/03/23 07:17:36;;;;;;;3.7;2.8;;;;;;;15.29;24.14844;949.3783;;;;
2022/03/23 07:20:01;;;;;;;7.8;3.4;;;;;;;14.89;25.26758;949.3689;;;;
2022/03/23 07:22:28;;;;;;;5.9;2.9;;;;;;;16.22;24.67383;949.3186;;;;
2022/03/23 07:24:53;;;;;;;6;2.6;;;;;;;16.2;24.33691;949.3326;;;;
2022/03/23 07:27:20;;;;;;;5.5;2.9;;;;;;;16.55;24.25293;949.4741;;;;
2022/03/23 07:29:45;;;;;;;8.8;2.8;;;;;;;18.61;22.27246;949.3309;;;;
2022/03/23 07:32:10;;;;;;;3.6;2.1;;;;;;;17.85;22.96582;949.3575;;;;
2022/03/23 07:34:35;;;;;;;3.1;2.2;;;;;;;16.54;23.29102;949.3936;;;;
2022/03/23 07:37:00;;;;;;;4.8;2.4;;;;;;;17.43;24.17383;949.3172;;;;
2022/03/23 07:39:26;;;;;;;4;2.1;;;;;;;16.01;24.8584;949.3473;;;;
2022/03/23 07:41:52;;;;;;;2.7;2;;;;;;;16.87;24.70996;949.3458;;;;
2022/03/23 07:44:16;;;;;;;3.3;2.4;;;;;;;17.31;23.4248;949.3481;;;;
2022/03/23 07:46:42;;;;;;;10.8;3.1;;;;;;;17.92;22.04004;949.2978;;;;
2022/03/23 07:49:08;;;;;;;7.4;3.2;;;;;;;16.51;23.68262;949.3444;;;;
2022/03/23 07:51:34;;;;;;;4.9;2.6;;;;;;;17.47;22.60938;949.3172;;;;
2022/03/23 07:53:59;;;;;;;4;2.4;;;;;;;16.82;22.91211;949.3175;;;;
2022/03/23 07:56:24;;;;;;;7.9;3.1;;;;;;;16.7;21.99121;949.2983;;;;
2022/03/23 07:58:50;;;;;;;4;2.5;;;;;;;15.8;23.70215;949.2138;;;;
2022/03/23 08:01:15;;;;;;;5;2.7;;;;;;;17.6;21.73438;949.2351;;;;
2022/03/23 08:03:41;;;;;;;4.3;2.6;;;;;;;17.74;21.69434;949.2429;;;;
2022/03/23 08:06:05;;;;;;;4.4;2.8;;;;;;;17.62;21.47949;949.2012;;;;
2022/03/23 08:08:30;;;;;;;5.6;2.8;;;;;;;18.61;20.7373;949.205;;;;
2022/03/23 08:10:56;;;;;;;4.5;2.5;;;;;;;21.92;18.1748;949.2271;;;;
2022/03/23 08:13:22;;;;;;;4.2;2.6;;;;;;;23.49;17.74512;949.1702;;;;
2022/03/23 08:15:47;;;;;;;3.8;2.7;;;;;;;23.22;17.4873;949.1819;;;;
2022/03/23 08:18:17;;;;;;;4.8;2.9;;;;;;;23.77;16.46191;949.1746;;;;
2022/03/23 08:20:39;;;;;;;3.3;2.4;;;;;;;19.74;18.95996;949.1947;;;;
2022/03/23 08:23:05;;;;;;;5.3;2.8;;;;;;;19.56;19.15039;949.1191;;;;
2022/03/23 08:25:30;;;;;;;3.9;2.5;;;;;;;22.51;16.91992;949.1883;;;;
2022/03/23 08:27:56;;;;;;;2.9;2.2;;;;;;;23.82;16.45215;949.0725;;;;
2022/03/23 08:30:22;;;;;;;4.1;2.3;;;;;;;26.05;14.85449;949.1664;;;;
2022/03/23 08:32:47;;;;;;;4.9;2;;;;;;;26.25;14.13965;949.0555;;;;
2022/03/23 08:35:14;;;;;;;3.4;2.3;;;;;;;23.39;15.31934;949.146;;;;
2022/03/23 08:37:39;;;;;;;2.1;1.9;;;;;;;26.27;14.93262;949.1089;;;;
2022/03/23 08:40:04;;;;;;;3.1;2.3;;;;;;;27.08;12.94434;949.0742;;;;
2022/03/23 08:42:30;;;;;;;2.6;2.4;;;;;;;25.11;13.21777;949.1225;;;;
2022/03/23 08:44:55;;;;;;;2.6;2.1;;;;;;;22.53;15.23047;949.0912;;;;
2022/03/23 08:47:21;;;;;;;3.8;2.4;;;;;;;24.5;14.87402;949.0605;;;;
2022/03/23 08:49:52;;;;;;;8.8;2.9;;;;;;;24.81;14.29492;949.0886;;;;
2022/03/23 08:52:17;;;;;;;4.1;2.7;;;;;;;24.61;15.92676;949.0598;;;;
2022/03/23 08:54:42;;;;;;;3.4;1.9;;;;;;;28.29;13.38379;948.9961;;;;
2022/03/23 08:57:09;;;;;;;3.3;2.1;;;;;;;29.63;12.56445;948.9824;;;;
2022/03/23 08:59:34;;;;;;;2.6;2.1;;;;;;;28.72;12.79004;948.9559;;;;
2022/03/23 09:02:02;;;;;;;5.4;2.2;;;;;;;29.09;12.38379;948.9295;;;;
2022/03/23 09:04:27;;;;;;;3;2.2;;;;;;;29.12;12.57422;948.9413;;;;
2022/03/23 09:06:52;;;;;;;2.8;2.2;;;;;;;30.11;11.87402;948.9199;;;;
2022/03/23 09:09:17;;;;;;;2.9;2.1;;;;;;;30.03;11.80078;948.9369;;;;
2022/03/23 09:11:43;;;;;;;4.5;2.2;;;;;;;29.62;12.37402;948.9188;;;;
2022/03/23 09:14:08;;;;;;;2.3;2.1;;;;;;;30.18;11.53027;948.9127;;;;
2022/03/23 09:16:34;;;;;;;2.9;2.1;;;;;;;28.21;12.09766;948.8842;;;;
2022/03/23 09:19:00;;;;;;;2.2;1.9;;;;;;;26.8;13.9082;948.8488;;;;
2022/03/23 09:21:25;;;;;;;2.4;1.8;;;;;;;28.31;12.63574;948.8347;;;;
2022/03/23 09:23:50;;;;;;;2.5;1.8;;;;;;;28.36;12.93359;948.818;;;;
2022/03/23 09:26:15;;;;;;;2.7;1.9;;;;;;;28.76;12.21973;948.7665;;;;
2022/03/23 09:28:40;;;;;;;2.5;2.3;;;;;;;28.55;12.71387;948.7966;;;;
2022/03/23 09:31:06;;;;;;;3.2;2.2;;;;;;;29.43;11.82129;948.7653;;;;
2022/03/23 09:33:31;;;;;;;4.5;2.2;;;;;;;29.4;12.27246;948.8022;;;;
2022/03/23 09:35:56;;;;;;;4.6;2.3;;;;;;;29.43;12.26172;948.7328;;;;
2022/03/23 09:38:22;;;;;;;5.5;2.2;;;;;;;30.37;12.32324;948.8108;;;;
2022/03/23 09:40:49;;;;;;;5.4;2.4;;;;;;;30.6;11.875;948.7811;;;;
2022/03/23 09:43:14;;;;;;;2.5;1.8;;;;;;;29.41;11.37891;948.8256;;;;
2022/03/23 09:45:48;;;;;;;2.2;2;;;;;;;27.78;11.77734;948.7821;;;;
2022/03/23 09:48:04;;;;;;;2.7;2.1;;;;;;;27.35;12.49023;948.713;;;;
2022/03/23 09:50:29;;;;;;;3.1;2.3;;;;;;;26.9;12.91602;948.7751;;;;
2022/03/23 09:52:55;;;;;;;4.8;2;;;;;;;27.13;12.68555;948.772;;;;
2022/03/23 09:55:20;;;;;;;2.9;2.3;;;;;;;27.71;12.90332;948.7219;;;;
2022/03/23 09:57:47;;;;;;;4.2;2.6;;;;;;;26.6;13.67676;948.7209;;;;
2022/03/23 10:00:13;;;;;;;2.6;2.3;;;;;;;27.08;13.08691;948.6644;;;;
2022/03/23 10:02:37;;;;;;;4.1;3;;;;;;;26.49;13.56738;948.6556;;;;
2022/03/23 10:05:02;;;;;;;4.8;3;;;;;;;25.57;14.67285;948.6644;;;;
2022/03/23 10:07:27;;;;;;;3.7;3.1;;;;;;;24.68;15.7168;948.6526;;;;
2022/03/23 10:09:52;;;;;;;4.3;2.6;;;;;;;25.01;15.17383;948.6484;;;;
2022/03/23 10:12:18;;;;;;;4.2;2.9;;;;;;;25.2;15.22754;948.6192;;;;
2022/03/23 10:15:30;;;;;;;3.4;2.8;;;;;;;26.13;15.14063;948.5899;;;;
2022/03/23 10:17:58;;;;;;;4;2.6;;;;;;;26.72;13.76367;948.5675;;;;
2022/03/23 10:20:21;;;;;;;4.1;3.1;;;;;;;27.11;13.23047;948.5619;;;;
2022/03/23 10:22:46;;;;;;;3.5;3;;;;;;;26.72;13.71582;948.5159;;;;
2022/03/23 10:25:12;;;;;;;3.5;3.2;;;;;;;26.18;14.49219;948.3815;;;;
2022/03/23 10:27:38;;;;;;;5.7;3.3;;;;;;;25.85;14.56445;948.4936;;;;
2022/03/23 10:30:03;;;;;;;5;3.3;;;;;;;26.28;14.38867;948.5009;;;;
2022/03/23 10:32:28;;;;;;;5.4;3.3;;;;;;;25.77;15.33008;948.4913;;;;
2022/03/23 10:34:54;;;;;;;4.9;3.1;;;;;;;25.02;15.33984;948.4987;;;;
2022/03/23 10:37:19;;;;;;;5.2;3.1;;;;;;;25.23;15.75977;948.4637;;;;
2022/03/23 10:39:44;;;;;;;4.3;3.4;;;;;;;24.9;16.55078;948.5096;;;;
2022/03/23 10:42:10;;;;;;;5;3.3;;;;;;;25.43;16.59375;948.4861;;;;
2022/03/23 10:44:36;;;;;;;5.6;3.8;;;;;;;25.77;16.39355;948.4086;;;;
2022/03/23 10:47:01;;;;;;;5.2;3.7;;;;;;;25.81;15.95801;948.3358;;;;
2022/03/23 10:49:27;;;;;;;4.5;3.3;;;;;;;25.85;16.75098;948.3688;;;;
2022/03/23 10:51:56;;;;;;;4.6;3.6;;;;;;;25.73;16.50977;948.287;;;;
2022/03/23 10:54:17;;;;;;;5.1;3.8;;;;;;;25.67;16.82715;948.3262;;;;
2022/03/23 10:56:42;;;;;;;5.6;3.5;;;;;;;25.31;16.93164;948.2881;;;;
2022/03/23 10:59:07;;;;;;;4.8;3.9;;;;;;;25.72;16.67578;948.2814;;;;
2022/03/23 11:01:32;;;;;;;7.5;3.8;;;;;;;25.56;17.09473;948.2717;;;;
2022/03/23 11:03:58;;;;;;;4.5;3.5;;;;;;;25.33;16.57813;948.2877;;;;
2022/03/23 11:06:23;;;;;;;5;3.4;;;;;;;25.08;16.94727;948.1964;;;;
2022/03/23 11:08:48;;;;;;;4.4;3.5;;;;;;;25.71;16.65137;948.197;;;;
2022/03/23 11:16:06;;;;;;;4.3;3.5;;;;;;;26.18;16.4209;948.1086;;;;
2022/03/23 11:18:30;;;;;;;4.6;3.9;;;;;;;25.37;16.92188;948.1184;;;;
2022/03/23 11:20:55;;;;;;;10.8;5.2;;;;;;;25.78;17.33984;948.0527;;;;
2022/03/23 11:23:20;;;;;;;4.1;3.7;;;;;;;25.01;17.88867;948.098;;;;
2022/03/23 11:25:45;;;;;;;4.6;3.5;;;;;;;25.31;18.5498;948.0353;;;;
2022/03/23 11:28:10;;;;;;;5.8;3.9;;;;;;;25.86;17.72168;947.9562;;;;
2022/03/23 11:30:37;;;;;;;5.9;4.1;;;;;;;26.07;17.36328;948.0129;;;;
2022/03/23 11:33:01;;;;;;;5;3.9;;;;;;;26.59;15.85547;947.9639;;;;
2022/03/23 11:35:28;;;;;;;6.2;3.9;;;;;;;27.45;16.05176;947.8931;;;;
2022/03/23 11:37:53;;;;;;;5.8;4.1;;;;;;;28.19;15.04395;947.8989;;;;
2022/03/23 11:40:17;;;;;;;5.2;4;;;;;;;28.21;14.86719;947.8764;;;;
2022/03/23 11:42:42;;;;;;;4.7;4;;;;;;;26.71;16.04883;947.6785;;;;
2022/03/23 11:45:11;;;;;;;5.9;4.2;;;;;;;25.51;18.14453;947.7953;;;;
2022/03/23 11:47:35;;;;;;;6.3;4.6;;;;;;;26.52;16.90723;947.7098;;;;
2022/03/23 11:50:00;;;;;;;7.5;4.3;;;;;;;27.67;15.7627;947.7967;;;;
2022/03/23 11:52:25;;;;;;;5.9;4.6;;;;;;;27.91;16.08008;947.7115;;;;
2022/03/23 11:57:15;;;;;;;4.9;4.2;;;;;;;27.72;16.15625;947.6479;;;;
2022/03/23 11:59:40;;;;;;;5.5;4.1;;;;;;;26.95;16.67383;947.5936;;;;
2022/03/23 12:02:05;;;;;;;7.4;4.4;;;;;;;26.62;16.49609;947.61;;;;
2022/03/23 12:04:31;;;;;;;5.7;4.7;;;;;;;26.69;17.11426;947.5472;;;;
2022/03/23 12:06:56;;;;;;;9.7;4.9;;;;;;;26.97;16.66309;947.5027;;;;
2022/03/23 12:09:21;;;;;;;4.6;4;;;;;;;27.01;16.17871;947.5187;;;;
2022/03/23 12:11:47;;;;;;;5.2;4.5;;;;;;;27.83;16.74219;947.4194;;;;
2022/03/23 12:14:12;;;;;;;7.5;4.4;;;;;;;27.75;16.46582;947.4294;;;;
2022/03/23 12:16:37;;;;;;;5;4.2;;;;;;;28.37;16.00098;947.3939;;;;
2022/03/23 12:19:03;;;;;;;7.1;5;;;;;;;27.4;16.70215;947.3638;;;;
2022/03/23 12:21:27;;;;;;;6.6;5.5;;;;;;;28.45;15.77832;947.3464;;;;
2022/03/23 12:23:53;;;;;;;5.8;4.8;;;;;;;28.14;15.57715;947.2891;;;;
2022/03/23 12:26:21;;;;;;;5.9;5;;;;;;;27.44;15.95703;947.282;;;;
2022/03/23 12:28:44;;;;;;;5.4;4.7;;;;;;;27.14;16.0293;947.2449;;;;
2022/03/23 12:31:10;;;;;;;6.1;4.6;;;;;;;27.69;16.03711;947.2157;;;;
2022/03/23 12:33:34;;;;;;;5.5;4.8;;;;;;;27.69;15.9541;947.2263;;;;
2022/03/23 12:35:59;;;;;;;6.3;5;;;;;;;29.08;15.03809;947.1647;;;;
2022/03/23 12:38:25;;;;;;;6.6;4.7;;;;;;;29.56;14.79199;947.1588;;;;
2022/03/23 12:40:49;;;;;;;6.3;4.9;;;;;;;29.07;14.64551;947.1554;;;;
2022/03/23 12:43:14;;;;;;;5.5;4.5;;;;;;;28.15;15.48242;947.0822;;;;
2022/03/23 12:45:39;;;;;;;7.4;4.7;;;;;;;27.17;16.08887;947.068;;;;
2022/03/23 12:48:05;;;;;;;6.7;4.5;;;;;;;27.61;15.99805;947.0663;;;;
2022/03/23 12:57:54;;;;;;;7.2;4.8;;;;;;;28.53;15.44824;946.9975;;;;
2022/03/23 13:00:10;;;;;;;6;4.5;;;;;;;27.84;16.11328;946.9121;;;;
2022/03/23 13:02:35;;;;;;;8.1;4.7;;;;;;;29.26;14.47266;946.9253;;;;
2022/03/23 13:05:00;;;;;;;5.3;4.5;;;;;;;29.49;14.31348;946.9194;;;;
2022/03/23 13:07:25;;;;;;;6.6;5;;;;;;;28.77;15.2666;946.9105;;;;
2022/03/23 13:09:50;;;;;;;7;4.9;;;;;;;29.46;15.4082;946.8067;;;;
2022/03/23 13:12:16;;;;;;;5.3;4.8;;;;;;;29.1;14.26465;946.8323;;;;
2022/03/23 13:14:42;;;;;;;6.4;4.7;;;;;;;28.04;15.21777;946.7236;;;;
2022/03/23 13:17:07;;;;;;;11.4;4.5;;;;;;;26.11;16.32324;946.6741;;;;
2022/03/23 13:19:32;;;;;;;6.7;4.3;;;;;;;27.18;15.47363;946.7467;;;;
2022/03/23 13:21:58;;;;;;;5.4;4.4;;;;;;;27.05;15.89551;946.7144;;;;
2022/03/23 13:24:23;;;;;;;5.9;4.5;;;;;;;25.73;16.36914;946.6337;;;;
2022/03/23 13:26:50;;;;;;;6.9;4.3;;;;;;;26.27;16.67285;946.6358;;;;
2022/03/23 13:29:14;;;;;;;7.3;4.2;;;;;;;26.35;15.96582;946.5081;;;;
2022/03/23 13:31:40;;;;;;;6.5;4.5;;;;;;;26.39;16.66504;946.6398;;;;
2022/03/23 13:34:04;;;;;;;4.7;4.2;;;;;;;27.72;15.1709;946.6503;;;;
2022/03/23 13:36:30;;;;;;;8.2;4.1;;;;;;;28.29;15.26172;946.6333;;;;
2022/03/23 13:38:55;;;;;;;7;5;;;;;;;27.12;15.63672;946.5605;;;;
2022/03/23 13:43:51;;;;;;;5.7;4.3;;;;;;;26.97;15.54883;946.5627;;;;
2022/03/23 13:46:12;;;;;;;5.7;4.7;;;;;;;26.07;16.90137;946.4454;;;;
2022/03/23 13:48:39;;;;;;;6.3;4.4;;;;;;;25.83;16.59668;946.4613;;;;
2022/03/23 13:51:03;;;;;;;5.6;4.5;;;;;;;24.83;17.53809;946.5208;;;;
2022/03/23 13:53:28;;;;;;;5.9;4.6;;;;;;;24.38;18.01563;946.5891;;;;
2022/03/23 13:55:53;;;;;;;9.3;4.4;;;;;;;24.33;18.29688;946.4846;;;;
2022/03/23 13:58:18;;;;;;;7.4;4.6;;;;;;;24.95;17.79102;946.5391;;;;
2022/03/23 14:00:43;;;;;;;6.9;4.5;;;;;;;26;16.07031;946.4561;;;;
2022/03/23 14:03:08;;;;;;;6.5;4.7;;;;;;;26.39;15.69434;946.4559;;;;
2022/03/23 14:05:34;;;;;;;6.8;4.9;;;;;;;26.18;16.16016;946.4146;;;;
2022/03/23 14:07:59;;;;;;;6.9;4.5;;;;;;;26.13;15.5791;946.4188;;;;
2022/03/23 14:10:24;;;;;;;4.6;4.1;;;;;;;25.67;16.5791;946.4495;;;;
2022/03/23 14:12:49;;;;;;;6.6;4.7;;;;;;;25.83;15.75781;946.392;;;;
2022/03/23 14:15:14;;;;;;;8.1;4.2;;;;;;;23.71;17.73047;946.4213;;;;
2022/03/23 14:17:40;;;;;;;6;4.2;;;;;;;24.09;17.47461;946.4124;;;;
2022/03/23 14:20:05;;;;;;;6.2;4.3;;;;;;;24.62;16.69336;946.3569;;;;
2022/03/23 14:22:30;;;;;;;6.9;3.7;;;;;;;24.01;17.12988;946.407;;;;
2022/03/23 14:24:57;;;;;;;6.8;4.2;;;;;;;24.16;17.34766;946.3622;;;;
2022/03/23 14:27:21;;;;;;;4.8;3.8;;;;;;;23.55;18.00586;946.3064;;;;
2022/03/23 14:29:45;;;;;;;5.9;4.2;;;;;;;22.83;18.34082;946.2831;;;;
2022/03/23 14:32:12;;;;;;;6.2;4;;;;;;;22.45;18.57227;946.2762;;;;
2022/03/23 14:34:38;;;;;;;9;4.6;;;;;;;21.78;19.48145;946.1906;;;;
2022/03/23 14:37:02;;;;;;;12.8;5.2;;;;;;;21.47;19.39648;946.2154;;;;
2022/03/23 14:39:27;;;;;;;6.7;4.4;;;;;;;20.97;20.75488;946.188;;;;
2022/03/23 14:41:52;;;;;;;7.2;4.8;;;;;;;20.68;20.66016;946.2316;;;;
2022/03/23 14:44:17;;;;;;;5.7;4.1;;;;;;;20.45;21.4668;946.1273;;;;
2022/03/23 14:46:43;;;;;;;4.8;4;;;;;;;20.32;21.21484;946.1783;;;;
2022/03/23 14:49:08;;;;;;;6.6;4.5;;;;;;;20.3;21.4707;946.1074;;;;
2022/03/23 14:51:34;;;;;;;7.4;4.9;;;;;;;20.06;21.0625;946.1487;;;;
2022/03/23 14:53:59;;;;;;;7.5;4.6;;;;;;;20.07;21.15625;946.1372;;;;